Погода Большетроицкоена 2 недели

Белгородская область, Россия

13 - 25 июля
  • 13июля
    Сегодня
    +18°
    +32°
    Ясно и безоблачно
    ВремяПогодаТемператураВлажностьДавлениеВетер, м/сВероятность осадков
    00:00Ясно и безоблачно+19°C54 %743 мм2.0 м/с2 %
    03:00Ясно и безоблачно+16°C67 %744 мм1.6 м/с2 %
    06:00Ясно и безоблачно+18°C61 %744 мм2.4 м/с2 %
    09:00Ясно и безоблачно+25°C39 %744 мм1.9 м/с2 %
    12:00Небольшая облачность+29°C31 %744 мм0.4 м/с2 %
    15:00Ясно и безоблачно+31°C29 %743 мм0.6 м/с2 %
    18:00Ясно и безоблачно+31°C30 %742 мм1.8 м/с2 %
    21:00Ясно и безоблачно+24°C45 %742 мм2.1 м/с2 %
  • 14июля
    Воскресенье
    +21°
    +33°
    Облачно с прояснениями
    ВремяПогодаТемператураВлажностьДавлениеВетер, м/сВероятность осадков
    00:00Ясно и безоблачно+20°C60 %742 мм2.2 м/с2 %
    03:00Ясно и безоблачно+18°C64 %742 мм2.2 м/с2 %
    06:00Ясно и безоблачно+20°C61 %742 мм1.8 м/с2 %
    09:00Ясно и безоблачно+28°C39 %743 мм2.0 м/с2 %
    12:00Ясно и безоблачно+31°C36 %742 мм1.8 м/с2 %
    15:00Облачно с прояснениями+33°C38 %741 мм1.8 м/с12 %
    18:00Небольшая облачность, ливень+31°C53 %742 мм2.2 м/с27 %
    21:00Ясно и безоблачно+26°C69 %742 мм0.6 м/с10 %
  • 15июля
    Понедельник
    +21°
    +35°
    Облачно с прояснениями
    ВремяПогодаТемператураВлажностьДавлениеВетер, м/сВероятность осадков
    00:00Ясно и безоблачно+23°C78 %741 мм1.9 м/с2 %
    03:00Ясно и безоблачно+22°C83 %741 мм1.3 м/с2 %
    06:00Ясно и безоблачно+23°C79 %741 мм1.8 м/с2 %
    09:00Ясно и безоблачно+30°C54 %742 мм2.2 м/с2 %
    12:00Небольшая облачность+33°C46 %741 мм3.0 м/с4 %
    15:00Облачно с прояснениями+35°C41 %742 мм5.2 м/с24 %
    18:00Облачно с прояснениями+32°C41 %741 мм3.7 м/с17 %
    21:00Облачно с прояснениями+27°C48 %742 мм2.1 м/с7 %
  • 16июля
    Вторник
    +20°
    +33°
    Облачно с прояснениями
    ВремяПогодаТемператураВлажностьДавлениеВетер, м/сВероятность осадков
    00:00Небольшая облачность+23°C55 %741 мм2.1 м/с2 %
    03:00Ясно и безоблачно+21°C64 %742 мм1.6 м/с2 %
    06:00Ясно и безоблачно+22°C71 %742 мм2.4 м/с2 %
    09:00Ясно и безоблачно+29°C53 %743 мм2.8 м/с2 %
    12:00Практически безоблачно+32°C36 %743 мм3.5 м/с7 %
    15:00Облачно с прояснениями+33°C30 %742 мм3.5 м/с15 %
    18:00Практически безоблачно+33°C31 %742 мм3.7 м/с21 %
    21:00Ясно и безоблачно+27°C39 %742 мм1.8 м/с6 %
Мы используем cookies
Соглашаюсь